createdAt,value
2018-11-29T06:43:46.323Z,12.00
2018-11-29T06:44:46.255Z,12.00
2018-11-29T06:45:46.300Z,12.00
2018-11-29T06:46:46.239Z,12.00
2018-11-29T06:47:47.266Z,12.00
2018-11-29T06:48:46.208Z,8.00
2018-11-29T06:49:46.375Z,0.00
2018-11-29T06:50:46.192Z,0.00
2018-11-29T06:51:46.345Z,0.00
2018-11-29T06:52:46.197Z,4.00
2018-11-29T06:53:47.229Z,0.00
2018-11-29T06:54:46.145Z,0.00
2018-11-29T06:55:46.179Z,0.00
2018-11-29T06:56:46.117Z,0.00
2018-11-29T06:57:46.252Z,0.00
2018-11-29T06:58:46.112Z,0.00
2018-11-29T06:59:46.222Z,0.00
2018-11-29T07:00:46.080Z,0.00
2018-11-29T07:01:46.195Z,4.00
2018-11-29T07:02:46.052Z,4.00
2018-11-29T07:03:46.194Z,4.00
2018-11-29T07:04:46.038Z,4.00
2018-11-29T07:05:46.230Z,4.00
2018-11-29T07:06:46.023Z,4.00
2018-11-29T07:07:46.094Z,4.00
2018-11-29T07:08:46.003Z,0.00
2018-11-29T07:09:46.168Z,0.00
2018-11-29T07:10:45.962Z,0.00
2018-11-29T07:11:46.158Z,4.00
2018-11-29T07:12:45.943Z,4.00
2018-11-29T07:13:46.128Z,4.00
2018-11-29T07:14:45.915Z,4.00
2018-11-29T07:15:46.069Z,4.00
2018-11-29T07:16:45.899Z,4.00
2018-11-29T07:17:47.980Z,0.00
2018-11-29T07:18:45.899Z,4.00
2018-11-29T07:19:46.014Z,4.00
2018-11-29T07:20:45.848Z,4.00
2018-11-29T07:21:45.968Z,4.00
2018-11-29T07:22:45.836Z,4.00
2018-11-29T07:23:45.979Z,8.00
2018-11-29T07:24:45.804Z,8.00
2018-11-29T07:25:45.905Z,8.00
2018-11-29T07:26:45.788Z,8.00
2018-11-29T07:27:45.976Z,4.00
2018-11-29T07:28:45.776Z,4.00
2018-11-29T07:29:45.848Z,8.00
2018-11-29T07:30:45.738Z,4.00
2018-11-29T07:31:45.907Z,8.00
2018-11-29T07:32:45.709Z,8.00
2018-11-29T07:33:45.808Z,8.00
2018-11-29T07:34:45.706Z,8.00
2018-11-29T07:35:45.744Z,8.00
2018-11-29T07:36:45.675Z,8.00
2018-11-29T07:37:45.823Z,12.00
2018-11-29T07:38:45.674Z,8.00
2018-11-29T07:39:45.678Z,8.00
2018-11-29T07:40:45.627Z,12.00
2018-11-29T07:41:45.761Z,12.00
2018-11-29T07:42:45.642Z,12.00
2018-11-29T07:43:45.762Z,8.00
2018-11-29T07:44:45.585Z,12.00
2018-11-29T07:45:45.694Z,12.00
2018-11-29T07:46:45.561Z,12.00
2018-11-29T07:47:45.659Z,16.00
2018-11-29T07:48:45.568Z,16.00
2018-11-29T07:49:45.724Z,12.00
2018-11-29T07:50:45.511Z,16.00
2018-11-29T07:51:45.626Z,16.00
2018-11-29T07:52:45.496Z,16.00
2018-11-29T07:53:45.696Z,20.00
2018-11-29T07:54:45.472Z,16.00
2018-11-29T07:55:45.647Z,20.00
2018-11-29T07:56:45.447Z,20.00
2018-11-29T07:57:45.489Z,20.00
2018-11-29T07:58:45.441Z,20.00
2018-11-29T07:59:45.584Z,20.00
2018-11-29T08:00:45.429Z,20.00
2018-11-29T08:01:45.533Z,20.00
2018-11-29T08:02:45.381Z,20.00
2018-11-29T08:03:46.573Z,20.00
2018-11-29T08:04:45.357Z,16.00
2018-11-29T08:05:46.305Z,20.00
2018-11-29T08:06:45.333Z,20.00
2018-11-29T08:07:47.635Z,20.00
2018-11-29T08:08:45.347Z,20.00
2018-11-29T08:09:47.447Z,20.00
2018-11-29T08:10:45.290Z,24.00
2018-11-29T08:11:45.476Z,20.00
2018-11-29T08:12:45.275Z,24.00
2018-11-29T08:13:45.340Z,24.00
2018-11-29T08:14:45.289Z,24.00
2018-11-29T08:15:45.455Z,24.00
2018-11-29T08:16:45.541Z,24.00
2018-11-29T08:17:45.409Z,24.00
2018-11-29T08:18:45.210Z,28.00
2018-11-29T08:19:45.282Z,24.00
2018-11-29T08:20:45.189Z,28.00
2018-11-29T08:21:45.330Z,28.00
2018-11-29T08:22:45.161Z,32.00
2018-11-29T08:23:45.197Z,32.00
2018-11-29T08:24:45.148Z,32.00
2018-11-29T08:25:45.261Z,32.00
2018-11-29T08:26:45.114Z,32.00
2018-11-29T08:27:45.221Z,32.00
2018-11-29T08:28:45.103Z,32.00
2018-11-29T08:29:45.322Z,32.00
2018-11-29T08:30:45.295Z,32.00
2018-11-29T08:31:45.161Z,32.00
2018-11-29T08:32:45.043Z,32.00
2018-11-29T08:33:45.233Z,36.00
2018-11-29T08:34:45.044Z,32.00
2018-11-29T08:35:45.212Z,36.00
2018-11-29T08:36:44.999Z,36.00
2018-11-29T08:37:45.066Z,36.00
2018-11-29T08:38:44.975Z,44.00
2018-11-29T08:39:46.089Z,60.00
2018-11-29T08:40:44.963Z,88.00
2018-11-29T08:41:45.000Z,128.00
2018-11-29T08:42:44.929Z,168.00
2018-11-29T08:43:45.075Z,192.00
2018-11-29T08:44:44.936Z,168.00
2018-11-29T08:45:44.937Z,232.00
2018-11-29T08:46:44.894Z,244.00
2018-11-29T08:47:45.015Z,196.00
2018-11-29T08:48:44.895Z,180.00
2018-11-29T08:49:46.042Z,232.00
2018-11-29T08:50:44.845Z,272.00
2018-11-29T08:51:45.961Z,228.00
2018-11-29T08:52:44.862Z,96.00
2018-11-29T08:53:52.047Z,76.00
2018-11-29T08:54:44.817Z,156.00
2018-11-29T08:55:44.877Z,192.00
2018-11-29T08:56:44.783Z,148.00
2018-11-29T08:57:46.887Z,64.00
2018-11-29T08:58:44.774Z,96.00
2018-11-29T08:59:44.843Z,64.00
2018-11-29T09:00:44.728Z,44.00
2018-11-29T09:01:44.892Z,40.00
2018-11-29T09:02:44.711Z,32.00
2018-11-29T09:03:44.776Z,28.00
2018-11-29T09:04:44.715Z,28.00
2018-11-29T09:05:44.829Z,28.00
2018-11-29T09:06:44.662Z,28.00
2018-11-29T09:07:44.786Z,24.00
2018-11-29T09:08:44.641Z,24.00
2018-11-29T09:09:44.795Z,28.00
2018-11-29T09:10:44.647Z,24.00
2018-11-29T09:11:45.418Z,24.00
2018-11-29T09:12:44.597Z,24.00
2018-11-29T09:13:44.794Z,24.00
2018-11-29T09:14:44.602Z,24.00
2018-11-29T09:15:44.663Z,24.00
2018-11-29T09:16:44.551Z,28.00
2018-11-29T09:17:44.633Z,24.00
2018-11-29T09:18:44.531Z,24.00
2018-11-29T09:19:44.601Z,28.00
2018-11-29T09:20:44.528Z,24.00
2018-11-29T09:21:44.562Z,28.00
2018-11-29T09:22:44.481Z,32.00
2018-11-29T09:23:44.653Z,32.00
2018-11-29T09:24:44.533Z,28.00
2018-11-29T09:25:44.646Z,32.00
2018-11-29T09:26:44.448Z,28.00
2018-11-29T09:27:44.573Z,32.00
2018-11-29T09:28:44.423Z,28.00
2018-11-29T09:29:47.502Z,28.00
2018-11-29T09:30:44.419Z,32.00
2018-11-29T09:31:44.609Z,28.00
2018-11-29T09:32:44.376Z,32.00
2018-11-29T09:33:44.479Z,28.00
2018-11-29T09:34:44.779Z,28.00
2018-11-29T09:35:46.417Z,28.00
2018-11-29T09:36:44.329Z,28.00
2018-11-29T09:37:44.631Z,28.00
2018-11-29T09:38:44.310Z,28.00
2018-11-29T09:39:44.379Z,28.00
2018-11-29T09:40:44.299Z,28.00
2018-11-29T09:41:45.371Z,28.00
2018-11-29T09:42:44.267Z,28.00
2018-11-29T09:43:45.279Z,28.00
2018-11-29T09:44:44.246Z,28.00
2018-11-29T09:45:44.427Z,28.00
2018-11-29T09:46:44.221Z,32.00
2018-11-29T09:47:44.363Z,28.00
2018-11-29T09:48:44.216Z,32.00
2018-11-29T09:49:44.318Z,36.00
2018-11-29T09:50:44.185Z,32.00
2018-11-29T09:51:44.288Z,32.00
2018-11-29T09:52:44.158Z,36.00
2018-11-29T09:53:44.363Z,36.00
2018-11-29T09:54:44.137Z,40.00
2018-11-29T09:55:44.260Z,48.00
2018-11-29T09:56:44.113Z,96.00
2018-11-29T09:57:44.195Z,128.00
2018-11-29T09:58:44.084Z,64.00
2018-11-29T09:59:44.277Z,84.00
2018-11-29T10:00:44.086Z,76.00
2018-11-29T10:01:44.131Z,148.00
2018-11-29T10:02:44.042Z,220.00
2018-11-29T10:03:44.201Z,132.00
2018-11-29T10:04:44.020Z,64.00
2018-11-29T10:05:44.109Z,60.00
2018-11-29T10:06:43.995Z,64.00
2018-11-29T10:07:44.140Z,56.00
2018-11-29T10:08:43.974Z,52.00
2018-11-29T10:09:46.047Z,48.00
2018-11-29T10:10:43.958Z,48.00
2018-11-29T10:11:44.108Z,48.00
2018-11-29T10:12:43.925Z,68.00
2018-11-29T10:13:46.334Z,260.00
2018-11-29T10:14:43.907Z,292.00
2018-11-29T10:15:44.012Z,252.00
2018-11-29T10:16:43.905Z,184.00
2018-11-29T10:17:44.077Z,292.00
2018-11-29T10:18:43.873Z,312.00
2018-11-29T10:19:43.945Z,324.00
2018-11-29T10:20:43.844Z,320.00
2018-11-29T10:21:43.952Z,320.00
2018-11-29T10:22:43.821Z,316.00
2018-11-29T10:23:43.884Z,316.00
2018-11-29T10:24:43.805Z,312.00
2018-11-29T10:25:44.189Z,312.00
2018-11-29T10:26:43.817Z,312.00
2018-11-29T10:27:43.921Z,312.00
2018-11-29T10:28:43.769Z,316.00
2018-11-29T10:29:44.007Z,164.00
2018-11-29T10:30:43.729Z,304.00
2018-11-29T10:31:43.898Z,284.00
2018-11-29T10:32:43.709Z,284.00
2018-11-29T10:33:43.927Z,300.00
2018-11-29T10:34:43.707Z,296.00
2018-11-29T10:35:43.795Z,284.00
2018-11-29T10:36:43.697Z,272.00
2018-11-29T10:37:43.763Z,252.00
2018-11-29T10:38:43.651Z,252.00
2018-11-29T10:39:43.744Z,236.00
2018-11-29T10:40:43.619Z,240.00
2018-11-29T10:41:43.739Z,224.00
2018-11-29T10:42:43.607Z,204.00
2018-11-29T10:43:43.772Z,188.00
2018-11-29T10:44:43.579Z,156.00
2018-11-29T10:45:43.671Z,120.00
2018-11-29T10:46:43.580Z,104.00
2018-11-29T10:47:43.607Z,72.00
2018-11-29T10:48:43.537Z,56.00
2018-11-29T10:49:43.685Z,48.00
2018-11-29T10:50:43.517Z,48.00
2018-11-29T10:51:43.679Z,44.00
2018-11-29T10:52:43.485Z,44.00
2018-11-29T10:53:43.502Z,40.00
2018-11-29T10:54:43.484Z,40.00
2018-11-29T10:55:43.577Z,40.00
2018-11-29T10:56:43.458Z,40.00
2018-11-29T10:57:43.553Z,36.00
2018-11-29T10:58:43.419Z,40.00
2018-11-29T10:59:43.512Z,36.00
2018-11-29T11:00:43.396Z,36.00
2018-11-29T11:01:44.448Z,40.00
2018-11-29T11:02:43.381Z,44.00
2018-11-29T11:03:43.455Z,44.00
2018-11-29T11:04:43.353Z,52.00
2018-11-29T11:05:43.427Z,60.00
2018-11-29T11:06:43.364Z,64.00
2018-11-29T11:07:44.409Z,68.00
2018-11-29T11:08:43.303Z,64.00
2018-11-29T11:09:43.357Z,72.00
2018-11-29T11:10:43.293Z,72.00
2018-11-29T11:11:43.329Z,80.00
2018-11-29T11:12:43.308Z,80.00
2018-11-29T11:13:43.289Z,72.00
2018-11-29T11:14:43.242Z,76.00
2018-11-29T11:15:43.257Z,72.00
2018-11-29T11:16:43.223Z,72.00
2018-11-29T11:17:43.255Z,72.00
2018-11-29T11:18:43.199Z,76.00
2018-11-29T11:19:43.305Z,76.00
2018-11-29T11:20:43.174Z,76.00
2018-11-29T11:21:43.261Z,76.00
2018-11-29T11:22:43.173Z,76.00
2018-11-29T11:23:43.239Z,76.00
2018-11-29T11:24:43.141Z,76.00
2018-11-29T11:25:43.202Z,72.00
2018-11-29T11:26:43.107Z,68.00
2018-11-29T11:27:43.212Z,64.00
2018-11-29T11:28:43.093Z,64.00
2018-11-29T11:29:43.137Z,64.00
2018-11-29T11:30:43.076Z,64.00
2018-11-29T11:31:43.109Z,52.00
2018-11-29T11:32:43.073Z,48.00
2018-11-29T11:33:43.073Z,40.00
2018-11-29T11:34:43.150Z,40.00
2018-11-29T11:35:43.056Z,36.00
2018-11-29T11:36:43.018Z,36.00
2018-11-29T11:37:43.048Z,32.00
2018-11-29T11:38:42.974Z,32.00
2018-11-29T11:39:43.084Z,32.00
2018-11-29T11:40:42.957Z,32.00
2018-11-29T11:41:43.055Z,32.00
2018-11-29T11:42:42.960Z,32.00
2018-11-29T11:43:44.045Z,32.00
2018-11-29T11:44:42.929Z,32.00
2018-11-29T11:45:44.013Z,32.00
2018-11-29T11:46:42.898Z,32.00
2018-11-29T11:47:44.019Z,28.00
2018-11-29T11:48:42.865Z,28.00
2018-11-29T11:49:42.921Z,28.00
2018-11-29T11:50:42.850Z,32.00
2018-11-29T11:51:42.888Z,32.00
2018-11-29T11:52:42.835Z,32.00
2018-11-29T11:53:42.862Z,32.00
2018-11-29T11:54:42.793Z,28.00
2018-11-29T11:55:43.846Z,28.00
2018-11-29T11:56:42.783Z,28.00
2018-11-29T11:57:42.831Z,28.00
2018-11-29T11:58:42.759Z,28.00
2018-11-29T11:59:42.873Z,28.00
2018-11-29T12:00:42.727Z,28.00
2018-11-29T12:01:42.833Z,28.00
2018-11-29T12:02:42.807Z,28.00
2018-11-29T12:03:43.829Z,28.00
2018-11-29T12:04:42.685Z,28.00
2018-11-29T12:05:42.764Z,28.00
2018-11-29T12:06:42.657Z,28.00
2018-11-29T12:07:42.787Z,28.00
2018-11-29T12:08:42.640Z,28.00
2018-11-29T12:09:42.767Z,28.00
2018-11-29T12:10:42.616Z,28.00
2018-11-29T12:11:42.679Z,28.00
2018-11-29T12:12:42.632Z,28.00
2018-11-29T12:13:42.641Z,28.00
2018-11-29T12:14:42.583Z,28.00
2018-11-29T12:15:42.607Z,28.00
2018-11-29T12:16:42.561Z,28.00
2018-11-29T12:17:42.613Z,24.00
2018-11-29T12:18:42.536Z,28.00
2018-11-29T12:19:42.648Z,28.00
2018-11-29T12:20:42.514Z,28.00
2018-11-29T12:21:42.631Z,28.00
2018-11-29T12:22:42.483Z,28.00
2018-11-29T12:23:42.630Z,28.00
2018-11-29T12:24:42.463Z,24.00
2018-11-29T12:25:42.567Z,24.00
2018-11-29T12:26:42.447Z,28.00
2018-11-29T12:27:42.519Z,28.00
2018-11-29T12:28:42.573Z,28.00
2018-11-29T12:29:42.490Z,24.00
2018-11-29T12:30:42.395Z,24.00
2018-11-29T12:31:46.545Z,24.00
2018-11-29T12:32:42.393Z,28.00
2018-11-29T12:33:42.457Z,24.00
2018-11-29T12:34:42.349Z,24.00
2018-11-29T12:35:42.397Z,24.00
2018-11-29T12:36:42.334Z,24.00
2018-11-29T12:37:43.387Z,24.00
2018-11-29T12:38:42.459Z,24.00
2018-11-29T12:39:43.361Z,20.00
2018-11-29T12:40:42.294Z,20.00
2018-11-29T12:41:42.402Z,20.00
2018-11-29T12:42:42.271Z,24.00
2018-11-29T12:43:43.328Z,24.00
2018-11-29T12:44:42.251Z,20.00
2018-11-29T12:45:42.334Z,20.00
2018-11-29T12:46:42.217Z,20.00
2018-11-29T12:47:42.317Z,24.00
2018-11-29T12:48:42.216Z,24.00
2018-11-29T12:49:42.271Z,20.00
2018-11-29T12:50:42.172Z,20.00
2018-11-29T12:51:42.243Z,20.00
2018-11-29T12:52:42.163Z,20.00
2018-11-29T12:53:42.243Z,20.00
2018-11-29T12:54:42.136Z,20.00
2018-11-29T12:55:42.183Z,20.00
2018-11-29T12:56:42.099Z,20.00
2018-11-29T12:57:42.329Z,20.00
2018-11-29T12:58:42.112Z,20.00
2018-11-29T12:59:42.107Z,20.00
2018-11-29T13:00:42.074Z,20.00
2018-11-29T13:01:42.085Z,20.00
2018-11-29T13:02:42.035Z,16.00
2018-11-29T13:03:42.099Z,20.00
2018-11-29T13:04:42.021Z,20.00
2018-11-29T13:05:42.125Z,20.00
2018-11-29T13:06:41.996Z,24.00
2018-11-29T13:07:43.392Z,20.00
2018-11-29T13:08:41.995Z,20.00
2018-11-29T13:09:42.053Z,24.00
2018-11-29T13:10:41.960Z,24.00
2018-11-29T13:11:42.020Z,24.00
2018-11-29T13:12:41.924Z,24.00
2018-11-29T13:13:42.023Z,24.00
2018-11-29T13:14:41.908Z,24.00
2018-11-29T13:15:41.979Z,24.00
2018-11-29T13:16:41.891Z,24.00
2018-11-29T13:17:41.970Z,24.00
2018-11-29T13:18:41.855Z,20.00
2018-11-29T13:19:41.928Z,24.00
2018-11-29T13:20:41.844Z,20.00
2018-11-29T13:21:41.994Z,20.00
2018-11-29T13:22:41.830Z,20.00
2018-11-29T13:23:41.832Z,20.00
2018-11-29T13:24:41.822Z,20.00
2018-11-29T13:25:41.897Z,20.00
2018-11-29T13:26:41.804Z,20.00
2018-11-29T13:27:41.873Z,0.00
2018-11-29T13:28:41.742Z,0.00
2018-11-29T13:29:41.878Z,0.00
2018-11-29T13:30:41.723Z,0.00
2018-11-29T13:31:41.810Z,0.00
2018-11-29T13:32:41.704Z,0.00
2018-11-29T13:33:41.842Z,0.00
2018-11-29T13:34:41.703Z,0.00
2018-11-29T13:35:42.764Z,0.00
2018-11-29T13:36:41.663Z,0.00
2018-11-29T13:37:41.717Z,0.00
2018-11-29T13:38:41.676Z,0.00
2018-11-29T13:39:41.711Z,0.00
2018-11-29T13:40:41.727Z,0.00
2018-11-29T13:41:41.668Z,0.00
2018-11-29T13:42:41.592Z,0.00
2018-11-29T13:43:41.615Z,0.00
2018-11-29T13:44:41.595Z,0.00
2018-11-29T13:45:41.689Z,0.00
2018-11-29T13:46:41.548Z,0.00
2018-11-29T13:47:41.652Z,0.00
2018-11-29T13:48:41.574Z,0.00
2018-11-29T13:49:41.655Z,0.00
2018-11-29T13:50:41.615Z,0.00
2018-11-29T13:51:41.591Z,0.00
2018-11-29T13:52:41.484Z,0.00
2018-11-29T13:53:42.586Z,0.00
2018-11-29T13:54:41.483Z,0.00
2018-11-29T13:55:41.600Z,0.00
2018-11-29T13:56:41.428Z,8.00
2018-11-29T13:57:48.761Z,8.00
2018-11-29T13:58:41.409Z,8.00
2018-11-29T13:59:41.496Z,4.00
2018-11-29T14:00:41.392Z,12.00
2018-11-29T14:01:41.430Z,12.00
2018-11-29T14:02:41.369Z,12.00
2018-11-29T14:03:41.400Z,12.00
2018-11-29T14:04:41.376Z,12.00
2018-11-29T14:05:41.369Z,16.00
2018-11-29T14:06:41.341Z,12.00
2018-11-29T14:07:42.367Z,12.00
2018-11-29T14:08:41.323Z,12.00
2018-11-29T14:09:41.440Z,12.00
2018-11-29T14:10:41.312Z,12.00
2018-11-29T14:11:41.370Z,12.00
2018-11-29T14:12:41.258Z,12.00
2018-11-29T14:13:41.336Z,12.00
2018-11-29T14:14:41.232Z,12.00
2018-11-29T14:15:41.343Z,12.00
2018-11-29T14:16:41.267Z,12.00
2018-11-29T14:17:41.273Z,12.00
2018-11-29T14:18:41.202Z,8.00
2018-11-29T14:19:41.280Z,8.00
2018-11-29T14:20:41.221Z,12.00
2018-11-29T14:21:41.220Z,12.00
2018-11-29T14:22:41.146Z,12.00
2018-11-29T14:23:41.187Z,12.00
2018-11-29T14:24:41.129Z,8.00
2018-11-29T14:25:41.186Z,12.00
2018-11-29T14:26:41.102Z,12.00
2018-11-29T14:27:41.112Z,12.00
2018-11-29T14:28:41.074Z,12.00
2018-11-29T14:29:41.186Z,16.00
2018-11-29T14:30:41.074Z,16.00
2018-11-29T14:31:41.150Z,12.00
2018-11-29T14:32:41.029Z,12.00
2018-11-29T14:33:41.123Z,12.00
2018-11-29T14:34:41.014Z,8.00
2018-11-29T14:35:41.127Z,12.00
2018-11-29T14:36:40.984Z,12.00
2018-11-29T14:37:42.193Z,12.00
2018-11-29T14:38:40.966Z,12.00
2018-11-29T14:39:41.036Z,12.00
2018-11-29T14:40:40.976Z,12.00
2018-11-29T14:41:42.023Z,12.00
2018-11-29T14:42:40.937Z,12.00
2018-11-29T14:43:40.966Z,8.00
2018-11-29T14:44:40.916Z,12.00
2018-11-29T14:45:40.983Z,12.00
2018-11-29T14:46:40.885Z,12.00
2018-11-29T14:47:40.904Z,12.00
2018-11-29T14:48:40.852Z,12.00
2018-11-29T14:49:40.971Z,12.00
2018-11-29T14:50:40.896Z,8.00
2018-11-29T14:51:47.972Z,8.00
2018-11-29T14:52:41.808Z,12.00
2018-11-29T14:53:40.916Z,12.00
2018-11-29T14:54:40.785Z,8.00
2018-11-29T14:55:40.910Z,8.00
2018-11-29T14:56:40.762Z,12.00
2018-11-29T14:57:41.879Z,12.00
2018-11-29T14:58:40.744Z,8.00
2018-11-29T14:59:40.814Z,8.00
2018-11-29T15:00:40.738Z,12.00
2018-11-29T15:01:40.805Z,8.00
2018-11-29T15:02:40.701Z,8.00
2018-11-29T15:03:40.755Z,8.00
2018-11-29T15:04:40.674Z,8.00
2018-11-29T15:05:40.767Z,8.00
2018-11-29T15:06:40.654Z,8.00
2018-11-29T15:07:40.682Z,8.00
2018-11-29T15:08:40.639Z,8.00
2018-11-29T15:09:40.654Z,8.00
2018-11-29T15:10:40.625Z,8.00
2018-11-29T15:11:40.620Z,8.00
2018-11-29T15:12:40.596Z,8.00
2018-11-29T15:13:40.685Z,8.00
2018-11-29T15:14:40.581Z,8.00
2018-11-29T15:15:40.694Z,8.00
2018-11-29T15:16:40.539Z,12.00
2018-11-29T15:17:40.631Z,8.00
2018-11-29T15:18:40.521Z,8.00
2018-11-29T15:19:40.606Z,8.00
2018-11-29T15:20:40.517Z,8.00
2018-11-29T15:21:40.567Z,8.00
2018-11-29T15:22:40.478Z,8.00
2018-11-29T15:23:41.565Z,8.00
2018-11-29T15:24:40.450Z,8.00
2018-11-29T15:25:42.593Z,8.00
2018-11-29T15:26:40.434Z,12.00
2018-11-29T15:27:40.468Z,12.00
2018-11-29T15:28:40.405Z,8.00
2018-11-29T15:29:40.436Z,12.00
2018-11-29T15:30:40.396Z,8.00
2018-11-29T15:31:40.437Z,8.00
2018-11-29T15:32:40.360Z,8.00
2018-11-29T15:33:40.472Z,8.00
2018-11-29T15:34:40.344Z,8.00
2018-11-29T15:35:40.449Z,12.00
2018-11-29T15:36:40.338Z,12.00
2018-11-29T15:37:40.426Z,12.00
2018-11-29T15:38:40.303Z,8.00
2018-11-29T15:39:40.382Z,8.00
2018-11-29T15:40:40.297Z,8.00
2018-11-29T15:41:40.387Z,8.00
2018-11-29T15:42:40.264Z,8.00
2018-11-29T15:43:40.317Z,8.00
2018-11-29T15:44:40.233Z,8.00
2018-11-29T15:45:41.316Z,8.00
2018-11-29T15:46:40.236Z,8.00
2018-11-29T15:47:40.256Z,12.00
2018-11-29T15:48:40.187Z,12.00
2018-11-29T15:49:42.263Z,8.00
2018-11-29T15:50:40.160Z,12.00
2018-11-29T15:51:40.225Z,8.00
2018-11-29T15:52:40.146Z,12.00
2018-11-29T15:53:40.266Z,12.00
2018-11-29T15:54:40.114Z,8.00
2018-11-29T15:55:40.228Z,4.00
2018-11-29T15:56:40.113Z,8.00
2018-11-29T15:57:40.208Z,0.00
2018-11-29T15:58:40.072Z,0.00
2018-11-29T15:59:41.190Z,0.00
2018-11-29T16:00:40.056Z,0.00
2018-11-29T16:01:40.167Z,0.00
2018-11-29T16:02:40.028Z,0.00
2018-11-29T16:03:40.116Z,0.00
2018-11-29T16:04:40.023Z,0.00
2018-11-29T16:05:41.268Z,0.00
2018-11-29T16:06:39.984Z,0.00
2018-11-29T16:07:40.016Z,0.00
2018-11-29T16:08:39.964Z,0.00
2018-11-29T16:09:40.004Z,0.00
2018-11-29T16:10:39.943Z,0.00
2018-11-29T16:11:39.967Z,0.00
2018-11-29T16:12:39.932Z,0.00
2018-11-29T16:13:39.939Z,0.00
2018-11-29T16:14:43.420Z,0.00
2018-11-29T16:15:40.006Z,0.00
2018-11-29T16:16:39.878Z,0.00
2018-11-29T16:17:39.911Z,0.00
2018-11-29T16:18:39.853Z,0.00
2018-11-29T16:19:39.945Z,0.00
2018-11-29T16:20:39.833Z,0.00
2018-11-29T16:21:39.923Z,0.00
2018-11-29T16:22:39.827Z,0.00
2018-11-29T16:23:39.884Z,0.00
2018-11-29T16:24:39.799Z,0.00
2018-11-29T16:25:39.853Z,0.00
2018-11-29T16:26:39.761Z,0.00
2018-11-29T16:27:39.867Z,0.00
2018-11-29T16:28:39.738Z,0.00
2018-11-29T16:29:40.813Z,0.00
2018-11-29T16:30:39.719Z,0.00
2018-11-29T16:31:39.755Z,0.00
2018-11-29T16:32:39.722Z,0.00
2018-11-29T16:33:39.779Z,0.00
2018-11-29T16:34:39.675Z,0.00
2018-11-29T16:35:39.693Z,0.00
2018-11-29T16:36:39.651Z,0.00
2018-11-29T16:37:39.676Z,0.00
2018-11-29T16:38:39.639Z,0.00
2018-11-29T16:39:39.742Z,0.00
2018-11-29T16:40:39.603Z,0.00
2018-11-29T16:41:39.699Z,0.00
2018-11-29T16:42:39.601Z,0.00
2018-11-29T16:43:39.685Z,0.00
2018-11-29T16:44:39.567Z,0.00
2018-11-29T16:45:39.642Z,0.00
2018-11-29T16:46:39.538Z,0.00
2018-11-29T16:47:39.735Z,0.00
2018-11-29T16:48:39.516Z,0.00
2018-11-29T16:49:40.598Z,0.00
2018-11-29T16:50:39.494Z,0.00
2018-11-29T16:51:39.491Z,0.00
2018-11-29T16:52:39.489Z,0.00
2018-11-29T16:53:39.503Z,0.00
2018-11-29T16:54:39.448Z,0.00
2018-11-29T16:55:40.447Z,0.00
2018-11-29T16:56:39.429Z,0.00
2018-11-29T16:57:40.503Z,0.00
2018-11-29T16:58:39.403Z,0.00
2018-11-29T16:59:40.429Z,0.00
2018-11-29T17:00:39.385Z,0.00
2018-11-29T17:01:39.485Z,0.00
2018-11-29T17:02:39.409Z,0.00
2018-11-29T17:03:40.479Z,0.00
2018-11-29T17:04:39.336Z,0.00
2018-11-29T17:05:39.340Z,0.00
2018-11-29T17:06:39.329Z,0.00
2018-11-29T17:07:39.444Z,0.00
2018-11-29T17:08:39.293Z,0.00
2018-11-29T17:09:39.355Z,0.00
2018-11-29T17:10:39.276Z,0.00
2018-11-29T17:11:39.317Z,0.00
2018-11-29T17:12:39.291Z,0.00
2018-11-29T17:13:39.285Z,0.00
2018-11-29T17:14:39.227Z,0.00
2018-11-29T17:15:40.301Z,0.00
2018-11-29T17:16:39.201Z,0.00
2018-11-29T17:17:39.221Z,0.00
2018-11-29T17:18:39.200Z,0.00
2018-11-29T17:19:39.306Z,0.00
2018-11-29T17:20:39.164Z,0.00
2018-11-29T17:21:39.265Z,0.00
2018-11-29T17:22:39.136Z,0.00
2018-11-29T17:23:39.263Z,0.00
2018-11-29T17:24:39.118Z,0.00
2018-11-29T17:25:39.200Z,0.00
2018-11-29T17:26:39.093Z,0.00
2018-11-29T17:27:39.171Z,0.00
2018-11-29T17:28:39.083Z,0.00
2018-11-29T17:29:39.141Z,0.00
2018-11-29T17:30:39.047Z,0.00
2018-11-29T17:31:39.102Z,0.00
2018-11-29T17:32:39.062Z,0.00
2018-11-29T17:33:39.207Z,0.00
2018-11-29T17:34:39.003Z,0.00
2018-11-29T17:35:39.046Z,0.00
2018-11-29T17:36:38.982Z,0.00
2018-11-29T17:37:39.012Z,0.00
2018-11-29T17:38:38.987Z,0.00
2018-11-29T17:39:39.076Z,0.00
2018-11-29T17:40:38.946Z,0.00
2018-11-29T17:41:39.052Z,0.00
2018-11-29T17:42:38.909Z,0.00
2018-11-29T17:43:39.061Z,0.00
2018-11-29T17:44:38.886Z,0.00
2018-11-29T17:45:40.058Z,0.00
2018-11-29T17:46:38.883Z,0.00
2018-11-29T17:47:38.954Z,0.00
2018-11-29T17:48:38.873Z,0.00
2018-11-29T17:49:40.046Z,0.00
2018-11-29T17:50:38.820Z,0.00
2018-11-29T17:51:38.996Z,0.00
2018-11-29T17:52:38.814Z,0.00
2018-11-29T17:53:38.891Z,0.00
2018-11-29T17:54:38.776Z,0.00
2018-11-29T17:55:38.838Z,0.00
2018-11-29T17:56:38.754Z,0.00
2018-11-29T17:57:38.793Z,0.00
2018-11-29T17:58:38.759Z,0.00
2018-11-29T17:59:38.773Z,0.00
2018-11-29T18:00:38.711Z,0.00
2018-11-29T18:01:38.826Z,0.00
2018-11-29T18:02:38.706Z,0.00
2018-11-29T18:03:38.725Z,0.00
2018-11-29T18:04:38.671Z,0.00
2018-11-29T18:05:38.764Z,0.00
2018-11-29T18:06:38.648Z,0.00
2018-11-29T18:07:38.807Z,0.00
2018-11-29T18:08:38.630Z,0.00
2018-11-29T18:09:38.742Z,0.00
2018-11-29T18:10:38.604Z,0.00
2018-11-29T18:11:38.668Z,0.00
2018-11-29T18:12:38.579Z,0.00
2018-11-29T18:13:38.684Z,0.00
2018-11-29T18:14:38.574Z,0.00
2018-11-29T18:15:38.605Z,0.00
2018-11-29T18:16:38.534Z,0.00
2018-11-29T18:17:38.586Z,0.00
2018-11-29T18:18:38.516Z,8.00
2018-11-29T18:19:38.576Z,8.00
2018-11-29T18:20:38.526Z,8.00
2018-11-29T18:21:39.541Z,8.00
2018-11-29T18:22:38.465Z,8.00
2018-11-29T18:23:38.578Z,8.00
2018-11-29T18:24:38.469Z,8.00
2018-11-29T18:25:38.556Z,8.00
2018-11-29T18:26:38.420Z,8.00
2018-11-29T18:27:45.674Z,8.00
2018-11-29T18:28:38.699Z,8.00
2018-11-29T18:29:38.517Z,8.00
2018-11-29T18:30:38.384Z,8.00
2018-11-29T18:31:38.449Z,8.00
2018-11-29T18:32:38.417Z,8.00
2018-11-29T18:33:38.420Z,8.00
2018-11-29T18:34:38.353Z,8.00
2018-11-29T18:35:38.543Z,8.00
2018-11-29T18:36:38.325Z,8.00
2018-11-29T18:37:38.354Z,8.00
2018-11-29T18:38:38.303Z,8.00
2018-11-29T18:39:38.370Z,8.00
2018-11-29T18:40:38.274Z,8.00
2018-11-29T18:41:38.292Z,8.00
2018-11-29T18:42:38.596Z,8.00
2018-11-29T18:43:38.942Z,8.00
2018-11-29T18:44:38.267Z,8.00
2018-11-29T18:45:38.331Z,8.00
2018-11-29T18:46:38.202Z,8.00
2018-11-29T18:47:38.300Z,8.00
2018-11-29T18:48:38.191Z,8.00
2018-11-29T18:49:38.373Z,8.00
2018-11-29T18:50:38.156Z,8.00
2018-11-29T18:51:38.233Z,8.00
2018-11-29T18:52:38.130Z,8.00
2018-11-29T18:53:39.225Z,8.00
2018-11-29T18:54:38.134Z,8.00
2018-11-29T18:55:38.171Z,8.00
2018-11-29T18:56:38.090Z,8.00
2018-11-29T18:57:38.144Z,8.00
2018-11-29T18:58:38.069Z,8.00
2018-11-29T18:59:38.146Z,8.00
2018-11-29T19:00:38.044Z,8.00
2018-11-29T19:01:38.086Z,8.00
2018-11-29T19:02:38.021Z,8.00
2018-11-29T19:03:38.045Z,8.00
2018-11-29T19:04:38.045Z,8.00
2018-11-29T19:05:38.019Z,8.00
2018-11-29T19:06:37.984Z,8.00
2018-11-29T19:07:38.085Z,8.00
2018-11-29T19:08:37.960Z,8.00
2018-11-29T19:09:37.993Z,8.00
2018-11-29T19:10:37.934Z,8.00
2018-11-29T19:11:38.024Z,8.00
2018-11-29T19:12:37.911Z,8.00
2018-11-29T19:13:37.987Z,8.00
2018-11-29T19:14:37.907Z,8.00
2018-11-29T19:15:37.957Z,8.00
2018-11-29T19:16:37.941Z,8.00
2018-11-29T19:17:37.966Z,8.00
2018-11-29T19:18:37.841Z,8.00
2018-11-29T19:19:37.946Z,8.00
2018-11-29T19:20:38.115Z,8.00
2018-11-29T19:21:37.857Z,8.00
2018-11-29T19:22:37.799Z,8.00
2018-11-29T19:23:37.830Z,8.00
2018-11-29T19:24:37.795Z,8.00
2018-11-29T19:25:37.924Z,8.00
2018-11-29T19:26:37.757Z,8.00
2018-11-29T19:27:37.879Z,8.00
2018-11-29T19:28:37.732Z,8.00
2018-11-29T19:29:37.895Z,8.00
2018-11-29T19:30:37.710Z,8.00
2018-11-29T19:31:37.798Z,8.00
2018-11-29T19:32:37.695Z,8.00
2018-11-29T19:33:37.774Z,8.00
2018-11-29T19:34:37.699Z,8.00
2018-11-29T19:35:37.787Z,8.00
2018-11-29T19:36:37.659Z,8.00
2018-11-29T19:37:37.713Z,8.00
2018-11-29T19:38:37.628Z,8.00
2018-11-29T19:39:37.717Z,8.00
2018-11-29T19:40:37.623Z,8.00
2018-11-29T19:41:37.649Z,8.00
2018-11-29T19:42:37.574Z,8.00
2018-11-29T19:43:40.094Z,8.00
2018-11-29T19:44:42.470Z,8.00
2018-11-29T19:45:37.622Z,8.00